createdAt,value
2023-02-23T00:02:06.623Z,11.40
2023-02-23T00:04:37.155Z,11.15
2023-02-23T00:07:04.470Z,10.73
2023-02-23T00:09:35.981Z,10.55
2023-02-23T00:12:08.055Z,12.82
2023-02-23T00:17:02.135Z,12.45
2023-02-23T00:19:28.778Z,14.13
2023-02-23T00:21:58.834Z,15.35
2023-02-23T00:24:27.030Z,21.10
2023-02-23T00:26:53.886Z,21.77
2023-02-23T00:29:23.217Z,16.60
2023-02-23T00:31:51.907Z,28.38
2023-02-23T00:34:23.973Z,24.58
2023-02-23T00:36:55.426Z,28.48
2023-02-23T00:39:23.673Z,28.83
2023-02-23T00:41:52.398Z,25.88
2023-02-23T00:44:21.076Z,21.13
2023-02-23T00:46:51.819Z,21.70
2023-02-23T00:49:20.100Z,19.38
2023-02-23T00:51:47.056Z,17.92
2023-02-23T00:54:14.921Z,17.58
2023-02-23T00:56:42.006Z,14.65
2023-02-23T00:59:09.394Z,14.90
2023-02-23T01:01:37.645Z,14.25
2023-02-23T01:04:05.357Z,15.20
2023-02-23T01:06:32.330Z,14.48
2023-02-23T01:08:59.063Z,12.85
2023-02-23T01:11:31.042Z,14.55
2023-02-23T01:13:59.553Z,11.25
2023-02-23T01:16:30.125Z,12.77
2023-02-23T01:18:59.323Z,12.48
2023-02-23T01:21:33.039Z,12.15
2023-02-23T01:24:00.024Z,12.57
2023-02-23T01:26:34.836Z,10.82
2023-02-23T01:29:23.550Z,10.88
2023-02-23T01:31:53.113Z,10.93
2023-02-23T01:34:21.800Z,10.68
2023-02-23T01:36:48.703Z,10.15
2023-02-23T01:39:19.495Z,10.00
2023-02-23T01:41:46.452Z,10.27
2023-02-23T01:44:13.051Z,9.52
2023-02-23T01:46:47.494Z,10.65
2023-02-23T01:49:20.317Z,9.38
2023-02-23T01:51:52.442Z,10.40
2023-02-23T01:54:22.723Z,10.85
2023-02-23T01:56:58.210Z,11.45
2023-02-23T01:59:43.884Z,10.80
2023-02-23T02:02:11.127Z,9.57
2023-02-23T02:04:46.450Z,10.73
2023-02-23T02:07:25.029Z,10.05
2023-02-23T02:10:17.803Z,10.48
2023-02-23T02:12:56.367Z,11.70
2023-02-23T02:15:29.853Z,12.23
2023-02-23T02:18:38.231Z,11.55
2023-02-23T02:21:42.113Z,11.35
2023-02-23T02:24:08.662Z,12.25
2023-02-23T02:27:02.855Z,11.80
2023-02-23T02:29:56.160Z,12.13
2023-02-23T02:32:54.234Z,12.52
2023-02-23T02:35:58.392Z,13.20
2023-02-23T02:38:51.045Z,12.75
2023-02-23T02:44:09.404Z,13.32
2023-02-23T02:46:40.970Z,13.57
2023-02-23T02:49:30.656Z,12.75
2023-02-23T02:52:19.356Z,12.07
2023-02-23T02:54:53.501Z,13.38
2023-02-23T02:57:25.238Z,12.20
2023-02-23T03:00:11.535Z,12.27
2023-02-23T03:02:58.300Z,13.00
2023-02-23T03:06:00.982Z,11.82
2023-02-23T03:09:26.022Z,12.95
2023-02-23T03:12:46.720Z,12.75
2023-02-23T03:15:47.870Z,11.30
2023-02-23T03:19:02.172Z,12.60
2023-02-23T03:22:00.641Z,11.40
2023-02-23T03:24:58.964Z,11.55
2023-02-23T03:28:05.970Z,11.23
2023-02-23T03:31:20.445Z,11.68
2023-02-23T03:34:18.349Z,11.70
2023-02-23T03:37:10.991Z,11.52
2023-02-23T03:42:52.781Z,12.95
2023-02-23T03:45:40.417Z,12.85
2023-02-23T03:48:29.348Z,12.65
2023-02-23T03:51:20.134Z,12.88
2023-02-23T03:54:24.165Z,12.77
2023-02-23T03:57:12.828Z,12.23
2023-02-23T04:00:05.745Z,15.85
2023-02-23T04:02:54.986Z,13.63
2023-02-23T04:05:42.660Z,13.38
2023-02-23T04:08:32.624Z,14.10
2023-02-23T04:11:30.441Z,14.20
2023-02-23T04:14:01.971Z,15.80
2023-02-23T04:16:30.550Z,15.55
2023-02-23T04:18:58.099Z,15.23
2023-02-23T04:21:24.742Z,15.05
2023-02-23T04:23:51.647Z,15.23
2023-02-23T04:26:18.214Z,15.85
2023-02-23T04:28:44.791Z,16.40
2023-02-23T04:31:14.202Z,14.80
2023-02-23T04:33:40.777Z,15.32
2023-02-23T04:36:07.823Z,14.68
2023-02-23T04:38:34.444Z,14.65
2023-02-23T04:41:01.111Z,14.55
2023-02-23T04:43:27.720Z,15.48
2023-02-23T04:45:54.349Z,16.45
2023-02-23T04:48:21.147Z,14.77
2023-02-23T04:50:47.761Z,15.73
2023-02-23T04:53:14.374Z,15.45
2023-02-23T04:55:40.959Z,15.50
2023-02-23T04:58:13.583Z,15.68
2023-02-23T05:00:41.104Z,15.48
2023-02-23T05:03:07.870Z,17.25
2023-02-23T05:05:34.459Z,18.10
2023-02-23T05:08:01.064Z,17.52
2023-02-23T05:10:27.728Z,19.15
2023-02-23T05:12:54.943Z,20.85
2023-02-23T05:15:21.748Z,17.30
2023-02-23T05:17:48.524Z,16.67
2023-02-23T05:20:15.394Z,16.13
2023-02-23T05:22:42.001Z,16.95
2023-02-23T05:25:10.414Z,17.88
2023-02-23T05:27:37.541Z,19.15
2023-02-23T05:30:07.463Z,17.42
2023-02-23T05:32:34.878Z,17.33
2023-02-23T05:35:02.657Z,18.08
2023-02-23T05:37:29.238Z,23.40
2023-02-23T05:39:55.807Z,22.63
2023-02-23T05:42:22.410Z,29.60
2023-02-23T05:44:49.038Z,18.95
2023-02-23T05:47:15.654Z,17.35
2023-02-23T05:49:42.763Z,17.60
2023-02-23T05:52:09.356Z,16.63
2023-02-23T05:54:35.952Z,31.33
2023-02-23T05:57:02.527Z,23.88
2023-02-23T05:59:29.121Z,20.77
2023-02-23T06:01:55.823Z,18.60
2023-02-23T06:04:23.375Z,17.85
2023-02-23T06:06:50.120Z,16.77
2023-02-23T06:09:16.742Z,16.90
2023-02-23T06:11:44.601Z,17.13
2023-02-23T06:14:11.359Z,16.75
2023-02-23T06:16:38.227Z,17.52
2023-02-23T06:19:05.033Z,17.58
2023-02-23T06:21:31.571Z,17.70
2023-02-23T06:24:00.668Z,16.08
2023-02-23T06:26:27.451Z,14.75
2023-02-23T06:28:54.379Z,13.75
2023-02-23T06:31:21.827Z,13.40
2023-02-23T06:33:48.811Z,15.18
2023-02-23T06:36:15.437Z,14.68
2023-02-23T06:38:42.188Z,12.40
2023-02-23T06:41:10.715Z,13.50
2023-02-23T06:43:37.458Z,13.32
2023-02-23T06:46:04.623Z,11.52
2023-02-23T06:48:31.780Z,12.35
2023-02-23T06:50:59.988Z,11.57
2023-02-23T06:53:26.681Z,11.27
2023-02-23T06:55:53.368Z,12.52
2023-02-23T06:58:19.999Z,11.85
2023-02-23T07:00:46.700Z,12.52
2023-02-23T07:03:13.308Z,11.93
2023-02-23T07:05:40.965Z,13.15
2023-02-23T07:08:07.733Z,15.00
2023-02-23T07:10:35.081Z,13.77
2023-02-23T07:13:01.854Z,14.95
2023-02-23T07:15:28.565Z,15.88
2023-02-23T07:17:55.482Z,14.95
2023-02-23T07:20:22.094Z,15.27
2023-02-23T07:22:48.691Z,14.73
2023-02-23T07:25:15.330Z,13.65
2023-02-23T07:27:42.403Z,13.45
2023-02-23T07:30:10.045Z,13.63
2023-02-23T07:32:36.788Z,13.60
2023-02-23T07:35:04.707Z,13.27
2023-02-23T07:37:31.339Z,14.25
2023-02-23T07:39:59.529Z,14.43
2023-02-23T07:42:27.666Z,16.23
2023-02-23T07:44:54.264Z,20.70
2023-02-23T07:47:21.007Z,13.00
2023-02-23T07:49:47.756Z,13.40
2023-02-23T07:52:18.478Z,14.45
2023-02-23T07:54:45.318Z,15.13
2023-02-23T07:57:12.354Z,14.70
2023-02-23T07:59:39.346Z,16.05
2023-02-23T08:02:05.987Z,16.20
2023-02-23T08:04:32.652Z,17.60
2023-02-23T08:06:59.669Z,18.52
2023-02-23T08:09:26.240Z,17.60
2023-02-23T08:11:52.779Z,17.52
2023-02-23T08:14:23.582Z,17.45
2023-02-23T08:16:51.655Z,16.88
2023-02-23T08:19:18.437Z,17.45
2023-02-23T08:21:45.519Z,17.13
2023-02-23T08:24:12.141Z,17.60
2023-02-23T08:26:38.771Z,20.95
2023-02-23T08:29:05.462Z,24.95
2023-02-23T08:31:33.859Z,27.48
2023-02-23T08:34:01.464Z,26.27
2023-02-23T08:36:28.281Z,22.77
2023-02-23T08:38:54.995Z,20.30
2023-02-23T08:41:22.075Z,20.83
2023-02-23T08:43:48.991Z,19.65
2023-02-23T08:46:18.603Z,19.77
2023-02-23T08:48:45.317Z,18.10
2023-02-23T08:51:11.900Z,18.13
2023-02-23T08:53:38.509Z,19.52
2023-02-23T08:56:07.315Z,18.42
2023-02-23T08:58:35.953Z,20.35
2023-02-23T09:01:04.030Z,20.63
2023-02-23T09:03:33.586Z,20.88
2023-02-23T09:06:10.148Z,20.88
2023-02-23T09:08:36.986Z,20.23
2023-02-23T09:11:03.520Z,20.45
2023-02-23T09:13:30.105Z,16.98
2023-02-23T09:15:56.761Z,17.27
2023-02-23T09:18:24.147Z,18.95
2023-02-23T09:20:51.906Z,17.77
2023-02-23T09:23:19.900Z,16.65
2023-02-23T09:25:46.824Z,15.80
2023-02-23T09:28:16.561Z,13.68
2023-02-23T09:30:44.722Z,12.07
2023-02-23T09:33:12.192Z,13.15
2023-02-23T09:35:39.421Z,13.32
2023-02-23T09:38:07.579Z,12.05
2023-02-23T09:40:46.981Z,12.18
2023-02-23T09:43:22.334Z,11.93
2023-02-23T09:46:04.269Z,10.90
2023-02-23T09:48:31.476Z,12.00
2023-02-23T09:50:59.909Z,11.95
2023-02-23T09:53:42.867Z,9.38
2023-02-23T09:56:35.772Z,10.45
2023-02-23T09:59:05.793Z,9.23
2023-02-23T10:02:10.685Z,9.98
2023-02-23T10:04:40.832Z,10.50
2023-02-23T10:07:18.600Z,10.55
2023-02-23T10:09:54.479Z,13.00
2023-02-23T10:12:29.946Z,12.57
2023-02-23T10:15:12.761Z,11.52
2023-02-23T10:17:50.802Z,11.60
2023-02-23T10:20:28.576Z,10.77
2023-02-23T10:23:01.330Z,9.68
2023-02-23T10:25:32.170Z,10.27
2023-02-23T10:28:01.038Z,9.82
2023-02-23T10:30:30.907Z,9.02
2023-02-23T10:33:25.561Z,10.45
2023-02-23T10:36:12.744Z,10.07
2023-02-23T10:38:40.725Z,9.27
2023-02-23T10:41:09.001Z,9.27
2023-02-23T10:43:35.767Z,8.98
2023-02-23T10:46:02.434Z,8.65
2023-02-23T10:48:43.160Z,8.90
2023-02-23T10:51:26.322Z,9.35
2023-02-23T10:53:53.019Z,8.80
2023-02-23T10:56:21.217Z,8.85
2023-02-23T10:58:58.455Z,8.85
2023-02-23T11:02:01.928Z,8.45
2023-02-23T11:04:31.463Z,8.57
2023-02-23T11:07:16.437Z,8.38
2023-02-23T11:09:47.607Z,8.25
2023-02-23T11:12:21.751Z,8.38
2023-02-23T11:14:53.405Z,8.23
2023-02-23T11:17:37.663Z,8.65
2023-02-23T11:20:28.690Z,7.13
2023-02-23T11:22:58.991Z,6.75
2023-02-23T11:25:32.715Z,6.32
2023-02-23T11:27:59.914Z,5.65
2023-02-23T11:30:38.092Z,6.50
2023-02-23T11:33:12.130Z,6.10
2023-02-23T11:35:39.210Z,6.53
2023-02-23T11:38:26.676Z,6.05
2023-02-23T11:41:05.627Z,4.88
2023-02-23T11:43:33.196Z,4.80
2023-02-23T11:46:02.090Z,5.25
2023-02-23T11:48:33.595Z,5.50
2023-02-23T11:51:01.328Z,4.88
2023-02-23T11:53:44.931Z,5.60
2023-02-23T11:56:12.623Z,6.13
2023-02-23T11:58:51.229Z,6.65
2023-02-23T12:01:44.005Z,6.40
2023-02-23T12:04:23.909Z,6.35
2023-02-23T12:06:51.079Z,6.75
2023-02-23T12:09:23.833Z,6.75
2023-02-23T12:12:01.856Z,4.70
2023-02-23T12:14:41.425Z,4.60
2023-02-23T12:17:23.975Z,5.38
2023-02-23T12:20:01.603Z,4.88
2023-02-23T12:22:53.812Z,5.53
2023-02-23T12:25:46.165Z,4.50
2023-02-23T12:28:32.233Z,4.65
2023-02-23T12:31:06.094Z,5.38
2023-02-23T12:33:39.354Z,4.88
2023-02-23T12:36:39.683Z,4.65
2023-02-23T12:39:30.723Z,5.07
2023-02-23T12:42:22.679Z,4.85
2023-02-23T12:44:58.813Z,4.47
2023-02-23T12:47:49.308Z,4.60
2023-02-23T12:50:24.883Z,4.75
2023-02-23T12:52:57.697Z,5.05
2023-02-23T12:56:06.552Z,4.68
2023-02-23T12:58:51.694Z,4.68
2023-02-23T13:01:33.977Z,4.15
2023-02-23T13:04:26.940Z,4.05
2023-02-23T13:07:05.521Z,4.03
2023-02-23T13:09:48.065Z,3.88
2023-02-23T13:12:42.467Z,4.10
2023-02-23T13:15:46.119Z,4.40
2023-02-23T13:18:34.614Z,3.42
2023-02-23T13:21:27.132Z,4.95
2023-02-23T13:23:56.644Z,3.80
2023-02-23T13:26:34.605Z,3.63
2023-02-23T13:29:01.196Z,3.67
2023-02-23T13:31:40.168Z,3.47
2023-02-23T13:34:24.284Z,4.15
2023-02-23T13:36:51.907Z,4.28
2023-02-23T13:39:37.109Z,4.10
2023-02-23T13:42:28.600Z,3.80
2023-02-23T13:45:14.969Z,4.50
2023-02-23T13:47:53.674Z,4.15
2023-02-23T13:50:30.309Z,3.88
2023-02-23T13:53:02.063Z,3.42
2023-02-23T13:55:40.038Z,4.15
2023-02-23T13:58:17.078Z,4.20
2023-02-23T14:00:50.010Z,4.50
2023-02-23T14:03:27.330Z,4.95
2023-02-23T14:05:59.842Z,5.43
2023-02-23T14:08:38.837Z,5.45
2023-02-23T14:11:06.495Z,4.28
2023-02-23T14:13:39.222Z,4.10
2023-02-23T14:16:24.252Z,4.60
2023-02-23T14:18:50.817Z,5.43
2023-02-23T14:21:26.614Z,4.40
2023-02-23T14:24:14.392Z,5.20
2023-02-23T14:27:08.284Z,3.05
2023-02-23T14:29:44.123Z,3.70
2023-02-23T14:32:10.984Z,4.18
2023-02-23T14:34:59.734Z,4.10
2023-02-23T14:37:55.613Z,3.88
2023-02-23T14:40:32.241Z,4.50
2023-02-23T14:43:02.254Z,5.43
2023-02-23T14:45:37.071Z,3.92
2023-02-23T14:48:17.165Z,4.75
2023-02-23T14:50:44.569Z,5.65
2023-02-23T14:53:24.335Z,5.25
2023-02-23T14:55:50.951Z,5.05
2023-02-23T14:58:35.291Z,4.45
2023-02-23T15:01:01.986Z,4.75
2023-02-23T15:03:28.747Z,5.50
2023-02-23T15:05:58.886Z,5.45
2023-02-23T15:08:28.118Z,5.55
2023-02-23T15:11:05.597Z,4.00
2023-02-23T15:13:40.449Z,6.68
2023-02-23T15:16:12.771Z,5.93
2023-02-23T15:18:42.313Z,4.85
2023-02-23T15:21:12.884Z,4.95
2023-02-23T15:23:39.985Z,4.63
2023-02-23T15:26:26.379Z,5.47
2023-02-23T15:28:53.653Z,5.93
2023-02-23T15:31:20.579Z,5.15
2023-02-23T15:33:50.850Z,5.72
2023-02-23T15:36:31.433Z,5.32
2023-02-23T15:39:01.087Z,5.03
2023-02-23T15:41:38.433Z,5.32
2023-02-23T15:44:14.549Z,4.95
2023-02-23T15:46:44.198Z,5.90
2023-02-23T15:49:14.367Z,6.05
2023-02-23T15:51:48.604Z,5.32
2023-02-23T15:54:29.754Z,5.22
2023-02-23T15:57:02.114Z,5.75
2023-02-23T15:59:34.732Z,5.05
2023-02-23T16:02:03.080Z,4.57
2023-02-23T16:04:33.818Z,6.32
2023-02-23T16:07:14.811Z,5.47
2023-02-23T16:09:50.302Z,6.15
2023-02-23T16:12:23.768Z,6.22
2023-02-23T16:15:27.116Z,9.68
2023-02-23T16:17:57.854Z,6.15
2023-02-23T16:20:35.587Z,6.07
2023-02-23T16:23:03.278Z,5.50
2023-02-23T16:25:31.190Z,7.13
2023-02-23T16:28:03.273Z,6.13
2023-02-23T16:30:32.948Z,6.35
2023-02-23T16:33:07.769Z,5.60
2023-02-23T16:35:46.527Z,5.40
2023-02-23T16:38:35.430Z,6.38
2023-02-23T16:41:11.249Z,6.05
2023-02-23T16:43:37.871Z,7.82
2023-02-23T16:46:04.599Z,6.07
2023-02-23T16:48:31.246Z,7.47
2023-02-23T16:50:57.878Z,6.95
2023-02-23T16:53:25.346Z,7.20
2023-02-23T16:56:01.019Z,5.80
2023-02-23T16:58:30.528Z,7.63
2023-02-23T17:00:57.213Z,12.13
2023-02-23T17:03:30.422Z,7.25
2023-02-23T17:05:57.280Z,8.25
2023-02-23T17:08:24.699Z,7.28
2023-02-23T17:10:57.376Z,7.88
2023-02-23T17:13:26.104Z,7.38
2023-02-23T17:15:56.311Z,10.00
2023-02-23T17:20:59.464Z,11.77
2023-02-23T17:23:28.544Z,11.50
2023-02-23T17:25:58.783Z,11.32
2023-02-23T17:28:25.935Z,10.10
2023-02-23T17:30:52.605Z,11.68
2023-02-23T17:33:19.633Z,10.88
2023-02-23T17:35:46.913Z,10.90
2023-02-23T17:38:14.968Z,9.68
2023-02-23T17:40:41.648Z,11.68
2023-02-23T17:43:08.653Z,8.75
2023-02-23T17:45:35.446Z,8.93
2023-02-23T17:48:02.020Z,9.13
2023-02-23T17:50:29.110Z,8.93
2023-02-23T17:52:56.468Z,9.10
2023-02-23T17:55:24.126Z,10.00
2023-02-23T17:57:50.808Z,9.90
2023-02-23T18:00:19.050Z,8.93
2023-02-23T18:02:46.726Z,13.95
2023-02-23T18:05:14.621Z,12.85
2023-02-23T18:07:42.019Z,13.27
2023-02-23T18:10:09.505Z,11.98
2023-02-23T18:12:36.100Z,13.65
2023-02-23T18:15:02.897Z,15.45
2023-02-23T18:17:32.557Z,13.65
2023-02-23T18:20:00.420Z,13.02
2023-02-23T18:22:27.131Z,13.82
2023-02-23T18:24:53.738Z,11.25
2023-02-23T18:27:20.390Z,14.02
2023-02-23T18:29:46.998Z,11.75
2023-02-23T18:32:13.754Z,12.50
2023-02-23T18:34:40.591Z,17.23
2023-02-23T18:37:10.201Z,15.90
2023-02-23T18:39:37.209Z,12.05
2023-02-23T18:42:04.550Z,14.73
2023-02-23T18:44:33.442Z,16.50
2023-02-23T18:47:01.394Z,16.85
2023-02-23T18:49:28.055Z,15.57
2023-02-23T18:51:54.795Z,19.50
2023-02-23T18:54:22.458Z,17.70
2023-02-23T18:56:49.328Z,18.75
2023-02-23T18:59:16.198Z,17.15
2023-02-23T19:01:45.454Z,18.77
2023-02-23T19:04:12.829Z,16.48
2023-02-23T19:06:42.924Z,13.52
2023-02-23T19:09:12.614Z,18.48
2023-02-23T19:11:41.428Z,18.15
2023-02-23T19:14:12.122Z,18.75
2023-02-23T19:16:41.200Z,19.05
2023-02-23T19:19:08.417Z,17.17
2023-02-23T19:21:36.022Z,21.48
2023-02-23T19:24:03.477Z,19.65
2023-02-23T19:26:31.720Z,20.27
2023-02-23T19:28:58.791Z,19.05
2023-02-23T19:31:26.550Z,18.08
2023-02-23T19:33:56.001Z,18.90
2023-02-23T19:36:29.607Z,16.85
2023-02-23T19:39:06.262Z,17.50
2023-02-23T19:41:33.970Z,16.77
2023-02-23T19:44:01.113Z,19.42
2023-02-23T19:46:28.066Z,18.52
2023-02-23T19:48:54.864Z,17.70
2023-02-23T19:51:22.450Z,16.60
2023-02-23T19:53:49.607Z,17.23
2023-02-23T19:56:17.179Z,15.13
2023-02-23T19:58:46.684Z,17.98
2023-02-23T20:01:16.926Z,15.93
2023-02-23T20:03:45.900Z,14.10
2023-02-23T20:06:14.583Z,19.42
2023-02-23T20:08:42.475Z,19.95
2023-02-23T20:11:09.466Z,21.85
2023-02-23T20:13:38.589Z,20.20
2023-02-23T20:16:09.052Z,18.27
2023-02-23T20:18:38.572Z,19.05
2023-02-23T20:21:24.427Z,17.15
2023-02-23T20:23:51.511Z,19.17
2023-02-23T20:26:21.913Z,18.92
2023-02-23T20:28:50.141Z,22.95
2023-02-23T20:31:23.276Z,18.85
2023-02-23T20:33:50.405Z,19.95
2023-02-23T20:36:18.735Z,19.88
2023-02-23T20:38:45.478Z,18.98
2023-02-23T20:41:12.209Z,20.88
2023-02-23T20:43:39.167Z,22.88
2023-02-23T20:46:06.662Z,19.98
2023-02-23T20:48:34.872Z,20.90
2023-02-23T20:51:02.901Z,24.23
2023-02-23T20:53:30.259Z,23.08
2023-02-23T20:55:56.989Z,21.73
2023-02-23T20:58:26.282Z,21.38
2023-02-23T21:00:57.237Z,26.20
2023-02-23T21:03:25.374Z,20.17
2023-02-23T21:05:53.017Z,21.08
2023-02-23T21:08:20.715Z,25.25
2023-02-23T21:10:48.798Z,24.27
2023-02-23T21:13:16.591Z,26.70
2023-02-23T21:15:44.428Z,22.67
2023-02-23T21:18:11.848Z,26.45
2023-02-23T21:20:39.766Z,25.58
2023-02-23T21:23:06.826Z,26.60
2023-02-23T21:25:33.596Z,25.33
2023-02-23T21:28:01.988Z,26.13
2023-02-23T21:30:29.045Z,19.27
2023-02-23T21:32:57.464Z,23.02
2023-02-23T21:35:24.542Z,24.83
2023-02-23T21:37:52.162Z,23.35
2023-02-23T21:40:23.379Z,22.13
2023-02-23T21:42:50.949Z,23.50
2023-02-23T21:45:18.249Z,22.63
2023-02-23T21:47:46.276Z,27.33
2023-02-23T21:50:16.891Z,23.55
2023-02-23T21:52:45.354Z,27.60
2023-02-23T21:55:21.177Z,26.33
2023-02-23T21:57:48.488Z,19.13
2023-02-23T22:00:16.440Z,20.50
2023-02-23T22:02:46.738Z,21.67
2023-02-23T22:05:14.911Z,20.27
2023-02-23T22:07:41.682Z,22.98
2023-02-23T22:10:08.887Z,25.85
2023-02-23T22:12:35.496Z,23.13
2023-02-23T22:15:07.186Z,24.63
2023-02-23T22:17:33.913Z,21.00
2023-02-23T22:20:00.618Z,24.30
2023-02-23T22:22:27.574Z,24.33
2023-02-23T22:24:54.171Z,23.35
2023-02-23T22:27:22.184Z,16.58
2023-02-23T22:29:48.895Z,21.90
2023-02-23T22:32:17.640Z,23.98
2023-02-23T22:34:44.427Z,18.25
2023-02-23T22:37:11.080Z,20.60
2023-02-23T22:39:41.714Z,21.73
2023-02-23T22:42:12.583Z,20.35
2023-02-23T22:44:39.329Z,17.25
2023-02-23T22:47:06.840Z,19.70
2023-02-23T22:49:34.723Z,15.65
2023-02-23T22:52:01.412Z,16.02
2023-02-23T22:54:28.092Z,15.32
2023-02-23T22:56:54.949Z,17.00
2023-02-23T22:59:21.521Z,16.38
2023-02-23T23:01:50.185Z,16.33
2023-02-23T23:04:17.276Z,15.82
2023-02-23T23:06:44.249Z,14.20
2023-02-23T23:09:12.173Z,14.43
2023-02-23T23:11:42.477Z,12.10
2023-02-23T23:14:10.596Z,13.30
2023-02-23T23:16:47.614Z,10.73
2023-02-23T23:19:17.565Z,12.15
2023-02-23T23:21:46.072Z,11.25
2023-02-23T23:24:13.519Z,11.68
2023-02-23T23:26:41.327Z,10.15
2023-02-23T23:29:11.380Z,10.88
2023-02-23T23:31:39.738Z,9.80
2023-02-23T23:34:10.220Z,11.82
2023-02-23T23:36:45.951Z,9.60
2023-02-23T23:39:15.305Z,8.52
2023-02-23T23:41:48.726Z,9.15
2023-02-23T23:44:21.586Z,8.45
2023-02-23T23:46:50.864Z,8.65
2023-02-23T23:49:19.917Z,8.75
2023-02-23T23:51:50.279Z,8.23
2023-02-23T23:54:31.327Z,8.43
2023-02-23T23:57:01.455Z,7.75
2023-02-23T23:59:28.498Z,8.13
